Map

Track Data

SID SEASON NUMBER BASIN SUBBASIN NAME ISO_TIME NATURE LAT LON WMO_WIND WMO_PRES WMO_AGENCY TRACK_TYPE DIST2LAND LANDFALL IFLAG USA_AGENCY USA_ATCF_ID USA_LAT USA_LON USA_RECORD USA_STATUS USA_WIND USA_PRES USA_SSHS USA_R34_NE USA_R34_SE USA_R34_SW USA_R34_NW USA_R50_NE USA_R50_SE USA_R50_SW USA_R50_NW USA_R64_NE USA_R64_SE USA_R64_SW USA_R64_NW USA_POCI USA_ROCI USA_RMW USA_EYE TOKYO_LAT TOKYO_LON TOKYO_GRADE TOKYO_WIND TOKYO_PRES TOKYO_R50_DIR TOKYO_R50_LONG TOKYO_R50_SHORT TOKYO_R30_DIR TOKYO_R30_LONG TOKYO_R30_SHORT TOKYO_LAND CMA_LAT CMA_LON CMA_CAT CMA_WIND CMA_PRES HKO_LAT HKO_LON HKO_CAT HKO_WIND HKO_PRES NEWDELHI_LAT NEWDELHI_LON NEWDELHI_GRADE NEWDELHI_WIND NEWDELHI_PRES NEWDELHI_CI NEWDELHI_DP NEWDELHI_POCI REUNION_LAT REUNION_LON REUNION_TYPE REUNION_WIND REUNION_PRES REUNION_TNUM REUNION_CI REUNION_RMW REUNION_R34_NE REUNION_R34_SE REUNION_R34_SW REUNION_R34_NW REUNION_R50_NE REUNION_R50_SE REUNION_R50_SW REUNION_R50_NW REUNION_R64_NE REUNION_R64_SE REUNION_R64_SW REUNION_R64_NW BOM_LAT BOM_LON BOM_TYPE BOM_WIND BOM_PRES BOM_TNUM BOM_CI BOM_RMW BOM_R34_NE BOM_R34_SE BOM_R34_SW BOM_R34_NW BOM_R50_NE BOM_R50_SE BOM_R50_SW BOM_R50_NW BOM_R64_NE BOM_R64_SE BOM_R64_SW BOM_R64_NW BOM_ROCI BOM_POCI BOM_EYE BOM_POS_METHOD BOM_PRES_METHOD NADI_LAT NADI_LON NADI_CAT NADI_WIND NADI_PRES WELLINGTON_LAT WELLINGTON_LON WELLINGTON_WIND WELLINGTON_PRES DS824_LAT DS824_LON DS824_STAGE DS824_WIND DS824_PRES TD9636_LAT TD9636_LON TD9636_STAGE TD9636_WIND TD9636_PRES TD9635_LAT TD9635_LON TD9635_WIND TD9635_PRES TD9635_ROCI NEUMANN_LAT NEUMANN_LON NEUMANN_CLASS NEUMANN_WIND NEUMANN_PRES MLC_LAT MLC_LON MLC_CLASS MLC_WIND MLC_PRES USA_GUST BOM_GUST BOM_GUST_PER REUNION_GUST REUNION_GUST_PER USA_SEAHGT USA_SEARAD_NE USA_SEARAD_SE USA_SEARAD_SW USA_SEARAD_NW STORM_SPEED STORM_DIR
1888228N23289 1888 36 NA NA NOT_NAMED 1888-08-14 12:00:00 TS 23.0667 -70.5667 35 hurdat_atl main 325 297 O____________O hurdat_atl AL031888 23.0000 -71.0000 TS 35 0 23.2000 -69.7000 TS 35 10 285
1888228N23289 1888 36 NA NA NOT_NAMED 1888-08-14 15:00:00 TS 23.2002 -71.1000 main 297 275 P____________P AL031888 23.1251 -71.5252 TS 37 0 23.3504 -70.2498 TS 37 11 287
1888228N23289 1888 36 NA NA NOT_NAMED 1888-08-14 18:00:00 TS 23.3667 -71.6667 40 hurdat_atl main 279 269 O____________O hurdat_atl AL031888 23.3000 -72.1000 TS 40 0 23.5000 -70.8000 TS 40 12 289
1888228N23289 1888 36 NA NA NOT_NAMED 1888-08-14 21:00:00 TS 23.5833 -72.2832 main 277 273 P____________P AL031888 23.5501 -72.7497 TS 45 0 23.6498 -71.3501 TS 45 12 291
1888228N23289 1888 36 NA NA NOT_NAMED 1888-08-15 00:00:00 TS 23.8000 -72.9000 50 hurdat_atl main 290 290 O____________O hurdat_atl AL031888 23.8000 -73.4000 TS 50 0 23.8000 -71.9000 TS 50 11 289
1888228N23289 1888 36 NA NA NOT_NAMED 1888-08-15 03:00:00 TS 23.9647 -73.4652 main 314 314 P____________P AL031888 23.9722 -73.9728 TS 55 0 23.9498 -72.4501 TS 55 10 287
1888228N23289 1888 36 NA NA NOT_NAMED 1888-08-15 06:00:00 TS 24.1000 -74.0000 60 hurdat_atl main 334 325 O____________O hurdat_atl AL031888 24.1000 -74.5000 TS 60 0 24.1000 -73.0000 TS 60 10 285
1888228N23289 1888 36 NA NA NOT_NAMED 1888-08-15 09:00:00 TS 24.2164 -74.5219 main 325 274 P____________P AL031888 24.1998 -75.0078 TS 65 1 24.2498 -73.5501 TS 62 10 284
1888228N23289 1888 36 NA NA NOT_NAMED 1888-08-15 12:00:00 TS 24.3333 -75.0333 70 hurdat_atl main 274 222 O____________O hurdat_atl AL031888 24.3000 -75.5000 HU 70 1 24.4000 -74.1000 HU 65 10 286
1888228N23289 1888 36 NA NA NOT_NAMED 1888-08-15 15:00:00 TS 24.4832 -75.5550 main 212 172 P____________P AL031888 24.4499 -76.0074 HU 75 1 24.5498 -74.6501 HU 65 10 288
1888228N23289 1888 36 NA NA NOT_NAMED 1888-08-15 18:00:00 TS 24.6333 -76.0667 80 hurdat_atl main 162 123 O____________O hurdat_atl AL031888 24.6000 -76.5000 HU 80 1 24.7000 -75.2000 HU 65 10 286
1888228N23289 1888 36 NA NA NOT_NAMED 1888-08-15 21:00:00 TS 24.7498 -76.5602 main 113 78 P____________P AL031888 24.6999 -76.9652 HU 85 2 24.8498 -75.7501 HU 65 9 285
1888228N23289 1888 36 NA NA NOT_NAMED 1888-08-16 00:00:00 TS 24.8667 -77.0333 90 hurdat_atl main 83 41 O____________O hurdat_atl AL031888 24.8000 -77.4000 HU 90 2 25.0000 -76.3000 HU 65 9 288
1888228N23289 1888 36 NA NA NOT_NAMED 1888-08-16 03:00:00 TS 25.0165 -77.4859 main 41 10 P____________P AL031888 24.9498 -77.8075 HU 95 2 25.1497 -76.8427 HU 67 9 290
1888228N23289 1888 36 NA NA NOT_NAMED 1888-08-16 06:00:00 TS 25.1667 -77.9333 100 hurdat_atl main 15 11 O____________O hurdat_atl AL031888 25.1000 -78.2000 HU 100 3 25.3000 -77.4000 HU 70 9 288
1888228N23289 1888 36 NA NA NOT_NAMED 1888-08-16 09:00:00 TS 25.2782 -78.3928 main 37 37 P____________P AL031888 25.1923 -78.5928 HU 105 3 25.4498 -77.9926 HU 70 9 285
1888228N23289 1888 36 NA NA NOT_NAMED 1888-08-16 12:00:00 TS 25.4000 -78.8667 110 hurdat_atl main 87 86 O____________O hurdat_atl AL031888 25.3000 -79.0000 HU 110 3 25.6000 -78.6000 HU 70 9 288
1888228N23289 1888 36 NA NA NOT_NAMED 1888-08-16 15:00:00 TS 25.5596 -79.3358 main 83 30 P____________P AL031888 25.4608 -79.4037 HU 110 3 25.7573 -79.2000 HU 67 10 292
1888228N23289 1888 36 NA NA NOT_NAMED 1888-08-16 18:00:00 TS 25.7667 -79.8667 110 hurdat_atl main 20 10 O____________O hurdat_atl AL031888 25.7000 -79.9000 HU 110 3 25.9000 -79.8000 HU 65 11 293
1888228N23289 1888 36 NA NA NOT_NAMED 1888-08-16 19:00:00 TS 25.8454 -80.0667 110 hurdat_atl main 0 0 O____________P hurdat_atl AL031888 25.8000 -80.1000 L HU 110 3 25.9363 -80.0002 HU 65 11 293
1888228N23289 1888 36 NA NA NOT_NAMED 1888-08-16 21:00:00 TS 25.9845 -80.4290 main 0 0 P____________P AL031888 25.9769 -80.4434 HU 99 3 25.9998 -80.4003 HU 65 10 292
1888228N23289 1888 36 NA NA NOT_NAMED 1888-08-17 00:00:00 TS 26.1667 -80.9333 85 hurdat_atl main 0 0 O____________O hurdat_atl AL031888 26.2000 -80.9000 HU 85 2 26.1000 -81.0000 HU 65 10 291
1888228N23289 1888 36 NA NA NOT_NAMED 1888-08-17 03:00:00 TS 26.3565 -81.4827 main 0 0 P____________P AL031888 26.4136 -81.4240 HU 77 1 26.2423 -81.6000 HU 65 11 290
1888228N23289 1888 36 NA GM NOT_NAMED 1888-08-17 06:00:00 TS 26.5333 -82.0667 70 hurdat_atl main 9 0 O____________O hurdat_atl AL031888 26.6000 -82.0000 HU 70 1 26.4000 -82.2000 HU 65 11 288
1888228N23289 1888 36 NA GM NOT_NAMED 1888-08-17 09:00:00 TS 26.6956 -82.6851 main 41 41 P____________P AL031888 26.7648 -82.6276 HU 75 1 26.5572 -82.8000 HU 72 12 285
1888228N23289 1888 36 NA GM NOT_NAMED 1888-08-17 12:00:00 TS 26.8333 -83.3333 80 hurdat_atl main 88 88 O____________O hurdat_atl AL031888 26.9000 -83.3000 HU 80 1 26.7000 -83.4000 HU 80 12 282
1888228N23289 1888 36 NA GM NOT_NAMED 1888-08-17 15:00:00 TS 26.9480 -83.9901 main 145 142 P____________P AL031888 27.0221 -83.9850 HU 85 2 26.7997 -84.0003 HU 85 12 280
1888228N23289 1888 36 NA GM NOT_NAMED 1888-08-17 18:00:00 TS 27.0333 -84.6667 90 hurdat_atl main 203 203 O____________O hurdat_atl AL031888 27.1000 -84.7000 HU 90 2 26.9000 -84.6000 HU 90 12 277
1888228N23289 1888 36 NA GM NOT_NAMED 1888-08-17 21:00:00 TS 27.0881 -85.3669 main 262 262 P____________P AL031888 27.1073 -85.4504 HU 92 2 27.0497 -85.1999 HU 92 13 275
1888228N23289 1888 36 NA GM NOT_NAMED 1888-08-18 00:00:00 TS 27.1333 -86.0667 95 hurdat_atl main 298 292 O____________O hurdat_atl AL031888 27.1000 -86.2000 HU 95 2 27.2000 -85.8000 HU 95 12 275
1888228N23289 1888 36 NA GM NOT_NAMED 1888-08-18 03:00:00 TS 27.1949 -86.7584 main 301 252 P____________P AL031888 27.1424 -86.9374 HU 95 2 27.2997 -86.4004 HU 95 12 276
1888228N23289 1888 36 NA GM NOT_NAMED 1888-08-18 06:00:00 TS 27.2667 -87.4000 95 hurdat_atl main 252 218 O____________O hurdat_atl AL031888 27.2000 -87.6000 HU 95 2 27.4000 -87.0000 HU 95 11 277
1888228N23289 1888 36 NA GM NOT_NAMED 1888-08-18 09:00:00 TS 27.3373 -87.9809 main 218 191 P____________P AL031888 27.2346 -88.1452 HU 95 2 27.5428 -87.6523 HU 95 10 280
1888228N23289 1888 36 NA GM NOT_NAMED 1888-08-18 12:00:00 TS 27.4333 -88.4667 95 hurdat_atl main 188 159 O____________O hurdat_atl AL031888 27.3000 -88.6000 HU 95 2 27.7000 -88.2000 HU 95 8 287
1888228N23289 1888 36 NA GM NOT_NAMED 1888-08-18 15:00:00 TS 27.5731 -88.8567 main 157 145 P____________P AL031888 27.4349 -89.0299 HU 95 2 27.8496 -88.5102 HU 95 7 296
1888228N23289 1888 36 NA GM NOT_NAMED 1888-08-18 18:00:00 TS 27.7333 -89.1667 95 hurdat_atl main 145 126 O____________O hurdat_atl AL031888 27.6000 -89.4000 HU 95 2 28.0000 -88.7000 HU 95 6 300
1888228N23289 1888 36 NA GM NOT_NAMED 1888-08-18 21:00:00 TS 27.8782 -89.4535 main 128 121 P____________P AL031888 27.7424 -89.7301 HU 95 2 28.1499 -88.9001 HU 95 6 303
1888228N23289 1888 36 NA GM NOT_NAMED 1888-08-19 00:00:00 TS 28.0333 -89.7000 95 hurdat_atl main 126 102 O____________O hurdat_atl AL031888 27.9000 -90.0000 HU 95 2 28.3000 -89.1000 HU 95 5 308
1888228N23289 1888 36 NA GM NOT_NAMED 1888-08-19 03:00:00 TS 28.2066 -89.9367 main 102 78 P____________P AL031888 28.0849 -90.2300 HU 95 2 28.4500 -89.3500 HU 95 5 314
1888228N23289 1888 36 NA GM NOT_NAMED 1888-08-19 06:00:00 TS 28.4000 -90.1333 95 hurdat_atl main 78 55 O____________O hurdat_atl AL031888 28.3000 -90.4000 HU 95 2 28.6000 -89.6000 HU 95 5 324
1888228N23289 1888 36 NA GM NOT_NAMED 1888-08-19 09:00:00 TS 28.6149 -90.2793 main 56 38 P____________P AL031888 28.5474 -90.5188 HU 95 2 28.7499 -89.8001 HU 95 5 332
1888228N23289 1888 36 NA GM NOT_NAMED 1888-08-19 12:00:00 TS 28.8333 -90.4000 95 hurdat_atl main 38 14 O____________O hurdat_atl AL031888 28.8000 -90.6000 HU 95 2 28.9000 -90.0000 HU 95 5 332
1888228N23289 1888 36 NA GM NOT_NAMED 1888-08-19 15:00:00 TS 29.0272 -90.5248 main 14 0 P____________P AL031888 29.0158 -90.6659 HU 95 2 29.0500 -90.2425 HU 95 5 330
1888228N23289 1888 36 NA GM NOT_NAMED 1888-08-19 16:00:00 TS 29.1000 -90.5760 95 hurdat_atl main 0 0 O____________P hurdat_atl AL031888 29.1000 -90.7000 L HU 95 2 29.1000 -90.3279 HU 95 6 327
1888228N23289 1888 36 NA NA NOT_NAMED 1888-08-19 18:00:00 TS 29.2667 -90.7000 85 hurdat_atl main 0 0 O____________O hurdat_atl AL031888 29.3000 -90.8000 HU 85 2 29.2000 -90.5000 HU 95 5 330
1888228N23289 1888 36 NA NA NOT_NAMED 1888-08-19 21:00:00 TS 29.4905 -90.8325 main 0 0 P____________P AL031888 29.5870 -90.8734 HU 80 1 29.2975 -90.7505 HU 95 5 338
1888228N23289 1888 36 NA NA NOT_NAMED 1888-08-20 00:00:00 TS 29.7667 -90.9333 75 hurdat_atl main 0 0 O____________O hurdat_atl AL031888 29.9000 -90.9000 HU 75 1 29.5000 -91.0000 HU 95 967 7 343
1888228N23289 1888 36 NA NA NOT_NAMED 1888-08-20 03:00:00 TS 30.1525 -91.0599 main 0 0 P____________P AL031888 30.2625 -90.9574 HU 72 1 29.9325 -91.2647 HU 85 9 347
1888228N23289 1888 36 NA NA NOT_NAMED 1888-08-20 06:00:00 TS 30.6333 -91.1667 70 hurdat_atl main 0 0 O____________O hurdat_atl AL031888 30.7000 -91.0000 HU 70 1 30.5000 -91.5000 HU 75 10 351
1888228N23289 1888 36 NA NA NOT_NAMED 1888-08-20 09:00:00 TS 31.1650 -91.2562 main 0 0 P____________P AL031888 31.2050 -91.0223 HU 67 1 31.0849 -91.7242 HU 67 11 355
1888228N23289 1888 36 NA NA NOT_NAMED 1888-08-20 12:00:00 TS 31.7667 -91.2667 65 hurdat_atl main 0 0 O____________O hurdat_atl AL031888 31.8000 -91.0000 HU 65 1 31.7000 -91.8000 TS 60 13 3
1888228N23289 1888 36 NA NA NOT_NAMED 1888-08-20 15:00:00 TS 32.4107 -91.1788 main 0 0 P____________P AL031888 32.4624 -90.9517 HU 62 0 32.3074 -91.6330 TS 55 14 11
1888228N23289 1888 36 NA NA NOT_NAMED 1888-08-20 18:00:00 TS 33.1000 -90.9667 60 hurdat_atl main 0 0 O____________O hurdat_atl AL031888 33.2000 -90.8000 TS 60 0 32.9000 -91.3000 TS 50 14 14
1888228N23289 1888 36 NA NA NOT_NAMED 1888-08-20 21:00:00 TS 33.7872 -90.7586 main 0 0 P____________P AL031888 33.9758 -90.6041 TS 57 0 33.4099 -91.0675 TS 45 16 23
1888228N23289 1888 36 NA NA NOT_NAMED 1888-08-21 00:00:00 TS 34.5333 -90.2333 55 hurdat_atl main 0 0 O____________O hurdat_atl AL031888 34.8000 -90.1000 TS 55 0 34.0000 -90.5000 TS 40 21 40
1888228N23289 1888 36 NA NA NOT_NAMED 1888-08-21 03:00:00 TS 35.3769 -89.1565 main 0 0 P____________P AL031888 35.6579 -89.1083 TS 52 0 34.8149 -89.2528 TS 37 26 50
1888228N23289 1888 36 NA NA NOT_NAMED 1888-08-21 06:00:00 TS 36.2333 -87.7667 50 hurdat_atl main 0 0 O____________O hurdat_atl AL031888 36.5000 -87.8000 TS 50 0 35.7000 -87.7000 TS 35 27 53
1888228N23289 1888 36 NA NA NOT_NAMED 1888-08-21 09:00:00 TS 37.0239 -86.4601 main 0 0 P____________P AL031888 37.2770 -86.5014 TS 47 0 36.5176 -86.3774 TS 32 27 56
1888228N23289 1888 36 NA NA NOT_NAMED 1888-08-21 12:00:00 TS 37.7667 -84.9667 45 hurdat_atl main 0 0 O____________O hurdat_atl AL031888 38.0000 -85.0000 TS 45 0 37.3000 -84.9000 TD 30 29 61
1888228N23289 1888 36 NA NA NOT_NAMED 1888-08-21 15:00:00 TS 38.4481 -83.2089 main 0 0 P____________P AL031888 38.6608 -83.2945 TS 45 0 38.0227 -83.0378 TD 30 32 66
1888228N23289 1888 36 NA NA NOT_NAMED 1888-08-21 18:00:00 TS 39.1000 -81.2000 45 hurdat_atl main 0 0 O____________O hurdat_atl AL031888 39.3000 -81.3000 TS 45 0 38.7000 -81.0000 TD 30 35 68
1888228N23289 1888 36 NA NA NOT_NAMED 1888-08-21 21:00:00 TS 39.7383 -78.9985 main 0 0 P____________P AL031888 39.9504 -78.9725 TS 42 0 39.3143 -79.0503 TD 32 37 70
1888228N23289 1888 36 NA NA NOT_NAMED 1888-08-22 00:00:00 MX 40.4000 -76.6667 40 hurdat_atl main 0 0 O____________O hurdat_atl AL031888 40.6000 -76.5000 TS 40 0 40.0000 -77.0000 EX 35 39 69
1888228N23289 1888 36 NA NA NOT_NAMED 1888-08-22 03:00:00 MX 41.1303 -74.2666 main 0 0 P____________P AL031888 41.2489 -74.0655 TS 40 0 40.8931 -74.6688 EX 37 38 67
1888228N23289 1888 36 NA NA NOT_NAMED 1888-08-22 06:00:00 MX 41.8667 -71.9667 40 hurdat_atl main 0 0 O____________O hurdat_atl AL031888 41.9000 -71.8000 TS 40 0 41.8000 -72.3000 EX 40 35 67
1888228N23289 1888 36 NA NA NOT_NAMED 1888-08-22 09:00:00 MX 42.5276 -69.8862 main 58 58 P____________P AL031888 42.5308 -69.8031 TS 45 0 42.5212 -70.0522 EX 45 31 65
1888228N23289 1888 36 NA NA NOT_NAMED 1888-08-22 12:00:00 ET 43.2000 -68.1000 50 hurdat_atl main 115 39 O____________O hurdat_atl AL031888 43.2000 -68.1000 EX 50 -4 43.2000 -68.1000 EX 50 28 60
1888228N23289 1888 36 NA NA NOT_NAMED 1888-08-22 15:00:00 ET 43.9331 -66.5933 main 31 0 P____________P AL031888 43.9312 -66.6064 EX 50 -4 43.9369 -66.5672 EX 50 25 53
1888228N23289 1888 36 NA NA NOT_NAMED 1888-08-22 18:00:00 ET 44.7000 -65.3000 50 hurdat_atl main 0 0 O____________O hurdat_atl AL031888 44.7000 -65.3000 EX 50 -4 44.7000 -65.3000 EX 50 24 50
1888228N23289 1888 36 NA NA NOT_NAMED 1888-08-22 21:00:00 ET 45.4483 -64.0090 main 0 0 P____________P AL031888 45.4483 -64.0090 EX 50 -4 45.4483 -64.0090 EX 50 23 49
1888228N23289 1888 36 NA NA NOT_NAMED 1888-08-23 00:00:00 ET 46.2000 -62.8000 50 hurdat_atl main 0 0 O____________O hurdat_atl AL031888 46.2000 -62.8000 EX 50 -4 46.2000 -62.8000 EX 50 23 48
1888228N23289 1888 36 NA NA NOT_NAMED 1888-08-23 03:00:00 ET 46.9499 -61.5739 main 56 44 P____________P AL031888 46.9499 -61.5739 EX 50 -4 46.9499 -61.5739 EX 50 22 46
1888228N23289 1888 36 NA NA NOT_NAMED 1888-08-23 06:00:00 ET 47.7000 -60.5000 50 hurdat_atl main 84 49 O____________O hurdat_atl AL031888 47.7000 -60.5000 EX 50 -4 47.7000 -60.5000 EX 50 20 40
1888228N23289 1888 36 NA NA NOT_NAMED 1888-08-23 09:00:00 ET 48.4550 -59.7143 main 45 24 P____________P AL031888 48.4550 -59.7143 EX 47 -4 48.4550 -59.7143 EX 47 18 34
1888228N23289 1888 36 NA NA NOT_NAMED 1888-08-23 12:00:00 ET 49.2000 -59.0000 45 hurdat_atl main 48 13 O____________O hurdat_atl AL031888 49.2000 -59.0000 EX 45 -4 49.2000 -59.0000 EX 45 18 37
1888228N23289 1888 36 NA NA NOT_NAMED 1888-08-23 15:00:00 ET 49.9234 -58.0359 main 13 0 P____________P AL031888 49.9234 -58.0359 EX 45 -4 49.9234 -58.0359 EX 45 19 41
1888228N23289 1888 36 NA NA NOT_NAMED 1888-08-23 18:00:00 ET 50.6000 -57.1000 45 hurdat_atl main 0 0 O____________O hurdat_atl AL031888 50.6000 -57.1000 EX 45 -4 50.6000 -57.1000 EX 45 17 39
1888228N23289 1888 36 NA NA NOT_NAMED 1888-08-23 21:00:00 ET 51.2142 -56.3648 main 0 0 P____________P AL031888 51.2142 -56.3648 EX 42 -4 51.2142 -56.3648 EX 42 14 34
1888228N23289 1888 36 NA NA NOT_NAMED 1888-08-24 00:00:00 ET 51.8000 -55.8000 40 hurdat_atl main 22 6 O____________O hurdat_atl AL031888 51.8000 -55.8000 EX 40 -4 51.8000 -55.8000 EX 40 13 27
1888228N23289 1888 36 NA NA NOT_NAMED 1888-08-24 03:00:00 ET 52.4142 -55.3748 main 13 13 P____________P AL031888 52.4142 -55.3748 EX 40 -4 52.4142 -55.3748 EX 40 13 22
1888228N23289 1888 36 NA NA NOT_NAMED 1888-08-24 06:00:00 ET 53.0000 -55.0000 40 hurdat_atl main 54 53 O____________O hurdat_atl AL031888 53.0000 -55.0000 EX 40 -4 53.0000 -55.0000 EX 40 12 26
1888228N23289 1888 36 NA NA NOT_NAMED 1888-08-24 09:00:00 ET 53.5000 -54.5134 main 88 88 P____________P AL031888 53.5000 -54.5134 EX 37 -4 53.5000 -54.5134 EX 37 12 31
1888228N23289 1888 36 NA NA NOT_NAMED 1888-08-24 12:00:00 ET 54.0000 -54.0000 35 hurdat_atl main 137 137 O____________O hurdat_atl AL031888 54.0000 -54.0000 EX 35 -4 54.0000 -54.0000 EX 35 12 29
1888228N23289 1888 36 NA NA NOT_NAMED 1888-08-24 15:00:00 ET 54.5753 -53.4984 main 196 196 P____________P AL031888 54.5753 -53.4984 EX 35 -4 54.5753 -53.4984 EX 35 13 26
1888228N23289 1888 36 NA NA NOT_NAMED 1888-08-24 18:00:00 ET 55.2000 -53.0000 35 hurdat_atl main 262 O____________O hurdat_atl AL031888 55.2000 -53.0000 EX 35 -4 55.2000 -53.0000 EX 35 14 24

About IBTrACS Database

This database is a web-friendly format of International Best Track Archive for Climate Stewardship (IBTrACS), a global best track data archive curated by NOAA dating back to 1842.

Updated: 2021-10-21